Mr. Mag — WDE7813 — position and weather

sailwx.info

Track history (hours):
 
Tides and Currents Weather Stations Pressure Air Temp Water Temp Dewpoint Dewpoint Depression Visibility Wind Speed Wind Dir Waves Ship Positions

Mr. Mag

Owner: Tandi Marine, Inc., Larose, LA. More information available from US FCC via Universal Licensing System and Coast Guard Vessel Documentation Center.

Last reported at 2016-Jul-30 09:11 UTC. Time now 2016-Jul-30 13:06 UTC.
Position N 29°29' W 092°19'.

Length 46 m; draft 2.5 m.

Type: Passenger vessel. MMSI: 367397990.

Date/timePositionNaut miles runAvg speedWind from/ knotsBaromVisibWave heightAir tempDewpointWater temp
2016-Jul-30 09:11N 29°29' W 092°19'5 7.7
2016-Jul-30 08:33N 29°34' W 092°18'1414.0
2016-Jul-30 07:33N 29°47' W 092°11'0 0.0
2016-Jul-30 06:33N 29°47' W 092°11'0 0.0
2016-Jul-30 05:34N 29°47' W 092°11'0 0.0
2016-Jul-30 03:23N 29°47' W 092°11'0 0.0
2016-Jul-30 02:33N 29°47' W 092°11'0 0.0
2016-Jul-30 01:33N 29°47' W 092°11'0 0.0
2016-Jul-30 00:33N 29°47' W 092°11'0 0.1
2016-Jul-29 23:33N 29°47' W 092°11'0 0.0
2016-Jul-29 22:33N 29°47' W 092°11'1413.8
2016-Jul-29 21:33N 29°34' W 092°18'5 0.4
2016-Jul-29 09:28N 29°29' W 092°19'5 5.5
2016-Jul-29 08:30N 29°34' W 092°18'1414.6
2016-Jul-29 07:33N 29°47' W 092°11'0 0.3
2016-Jul-29 06:33N 29°47' W 092°11'0 0.0
2016-Jul-29 05:33N 29°47' W 092°11'0 0.0
2016-Jul-29 03:33N 29°47' W 092°11'0 0.0
2016-Jul-29 02:33N 29°47' W 092°11'0 0.0
2016-Jul-29 01:33N 29°47' W 092°11'0 0.0
2016-Jul-29 00:33N 29°47' W 092°11'0 0.0
2016-Jul-28 23:33N 29°47' W 092°11'0 0.0
2016-Jul-28 22:33N 29°47' W 092°11'0 0.0
2016-Jul-28 21:33N 29°47' W 092°11'0 0.0
2016-Jul-28 20:33N 29°47' W 092°11'0 0.0
2016-Jul-28 19:33N 29°47' W 092°11'1 0.8
2016-Jul-28 18:33N 29°46' W 092°11'1414.1
2016-Jul-28 17:32N 29°33' W 092°18'3 0.4
2016-Jul-28 09:33N 29°30' W 092°19'1111.2
2016-Jul-28 08:33N 29°41' W 092°15'7 7.0
2016-Jul-28 07:33N 29°47' W 092°11'0 0.0
2016-Jul-28 06:33N 29°47' W 092°11'0 0.0
2016-Jul-28 05:33N 29°47' W 092°11'0 0.0
2016-Jul-28 03:33N 29°47' W 092°11'0 0.0
2016-Jul-28 02:33N 29°47' W 092°11'0 0.0
2016-Jul-28 01:33N 29°47' W 092°11'0 0.0
2016-Jul-28 00:33N 29°47' W 092°11'0 0.0
2016-Jul-27 23:34N 29°47' W 092°11'0 0.0
2016-Jul-27 22:33N 29°47' W 092°11'0 0.0
2016-Jul-27 21:33N 29°47' W 092°11'0 0.0
2016-Jul-27 20:33N 29°47' W 092°11'0 0.0
2016-Jul-27 19:33N 29°47' W 092°11'0 0.0
2016-Jul-27 18:34N 29°47' W 092°11'0 0.0
2016-Jul-27 17:33N 29°47' W 092°11'0 0.0
2016-Jul-27 16:34N 29°47' W 092°11'0 0.0
2016-Jul-27 15:33N 29°47' W 092°11'0 0.0
2016-Jul-27 14:33N 29°47' W 092°11'0 0.0
2016-Jul-27 13:33N 29°47' W 092°11'0 0.0
2016-Jul-27 12:33N 29°47' W 092°11'0 0.0
2016-Jul-27 11:34N 29°47' W 092°11'0 0.0
2016-Jul-27 10:33N 29°47' W 092°11'0 0.0
2016-Jul-27 09:33N 29°47' W 092°11'0 0.0
2016-Jul-27 08:33N 29°47' W 092°11'0 0.0
2016-Jul-27 07:33N 29°47' W 092°11'0 0.0
2016-Jul-27 06:33N 29°47' W 092°11'0 0.0
2016-Jul-27 05:33N 29°47' W 092°11'0 0.0
2016-Jul-27 04:33N 29°47' W 092°11'0 0.0
2016-Jul-27 03:33N 29°47' W 092°11'1 0.9
2016-Jul-27 02:33N 29°46' W 092°11'16 1.8
2016-Jul-26 17:26N 29°31' W 092°19'910.1
2016-Jul-26 16:34N 29°39' W 092°16'8 8.4
2016-Jul-26 15:33N 29°47' W 092°11'0 0.0
2016-Jul-26 14:33N 29°47' W 092°11'0 0.0
2016-Jul-26 13:33N 29°47' W 092°11'0 0.0
2016-Jul-26 12:33N 29°47' W 092°11'0 0.0
2016-Jul-26 11:33N 29°47' W 092°11'0 0.0
2016-Jul-26 10:33N 29°47' W 092°11'0 0.0
2016-Jul-26 09:33N 29°47' W 092°11'0 0.0
2016-Jul-26 08:33N 29°47' W 092°11'0 0.0
2016-Jul-26 07:33N 29°47' W 092°11'0 0.0
2016-Jul-26 06:33N 29°47' W 092°11'0 0.0
2016-Jul-26 05:33N 29°47' W 092°11'0 0.0
2016-Jul-26 04:33N 29°47' W 092°11'0 0.0
2016-Jul-26 03:33N 29°47' W 092°11'0 0.0
2016-Jul-26 02:33N 29°47' W 092°11'0 0.0
2016-Jul-26 01:33N 29°47' W 092°11'0 0.0
2016-Jul-26 00:33N 29°47' W 092°11'0 0.0
2016-Jul-25 23:33N 29°47' W 092°11'0 0.0
2016-Jul-25 22:34N 29°47' W 092°11'0 0.0
2016-Jul-25 21:33N 29°47' W 092°11'4 4.4
2016-Jul-25 20:33N 29°44' W 092°15'11 9.9
2016-Jul-25 19:24N 29°33' W 092°18'1 0.1
2016-Jul-25 14:33N 29°33' W 092°18'1312.6
2016-Jul-25 13:33N 29°45' W 092°13'3 2.5
2016-Jul-25 12:33N 29°47' W 092°11'0 0.0
2016-Jul-25 11:33N 29°47' W 092°11'0 0.0
2016-Jul-25 10:33N 29°47' W 092°11'0 0.0
2016-Jul-25 09:33N 29°47' W 092°11'0 0.0
2016-Jul-25 08:33N 29°47' W 092°11'0 0.0
2016-Jul-25 07:33N 29°47' W 092°11'0 0.0
2016-Jul-25 06:33N 29°47' W 092°11'0 0.0
2016-Jul-25 05:33N 29°47' W 092°11'0 0.0
2016-Jul-25 04:33N 29°47' W 092°11'0 0.1
2016-Jul-25 03:33N 29°47' W 092°11'0 0.0
2016-Jul-25 02:33N 29°47' W 092°11'4 4.2
2016-Jul-25 01:33N 29°44' W 092°14'15 4.8
2016-Jul-24 22:31N 29°30' W 092°19'6 6.1
2016-Jul-24 21:34N 29°35' W 092°18'1312.8
2016-Jul-24 20:33N 29°47' W 092°11'0 0.0
2016-Jul-24 19:33N 29°47' W 092°11'0 0.0
2016-Jul-24 18:33N 29°47' W 092°11'0 0.0
2016-Jul-24 17:33N 29°47' W 092°11'0 0.0
2016-Jul-24 16:33N 29°47' W 092°11'0 0.0
2016-Jul-24 15:33N 29°47' W 092°11'1413.7
2016-Jul-24 14:33N 29°35' W 092°18'5 1.0
2016-Jul-24 09:24N 29°29' W 092°19'6 7.2
2016-Jul-24 08:33N 29°35' W 092°18'1312.9
2016-Jul-24 07:33N 29°47' W 092°11'0 0.2
2016-Jul-24 06:33N 29°47' W 092°11'0 0.0
2016-Jul-24 05:33N 29°47' W 092°11'0 0.0
2016-Jul-24 04:33N 29°47' W 092°11'0 0.0
2016-Jul-24 03:33N 29°47' W 092°11'2 2.4
2016-Jul-24 02:34N 29°45' W 092°13'19 1.1
2016-Jul-23 09:07N 29°27' W 092°22'711.5
2016-Jul-23 08:33N 29°33' W 092°18'1010.1
2016-Jul-23 07:33N 29°43' W 092°15'5 4.9
2016-Jul-23 06:31N 29°47' W 092°11'0 0.0
2016-Jul-22 04:33N 29°47' W 092°11'0 0.0
2016-Jul-22 03:33N 29°47' W 092°11'3 3.0
2016-Jul-22 02:33N 29°45' W 092°13'12 3.0
2016-Jul-21 22:33N 29°33' W 092°18'1514.7
2016-Jul-21 21:34N 29°46' W 092°11'1 0.8
2016-Jul-21 20:33N 29°47' W 092°11'0 0.0
2016-Jul-21 19:33N 29°47' W 092°11'0 0.0
2016-Jul-21 18:33N 29°47' W 092°11'0 0.0
2016-Jul-21 17:33N 29°47' W 092°11'0 0.0
2016-Jul-21 16:33N 29°47' W 092°11'7 7.5
2016-Jul-21 15:33N 29°40' W 092°15'12 1.9
2016-Jul-21 09:19N 29°29' W 092°19'7 8.9
2016-Jul-21 08:33N 29°36' W 092°18'1212.4
2016-Jul-21 07:33N 29°47' W 092°11'0 0.0
2016-Jul-21 06:33N 29°47' W 092°11'0 0.0
2016-Jul-21 05:33N 29°47' W 092°11'0 0.0
2016-Jul-21 04:33N 29°47' W 092°11'0 0.0
2016-Jul-21 03:33N 29°47' W 092°11'0 0.0
2016-Jul-21 02:33N 29°47' W 092°11'0 0.0
2016-Jul-21 01:34N 29°47' W 092°11'0 0.0
2016-Jul-21 00:33N 29°47' W 092°11'0 0.0
2016-Jul-20 23:33N 29°47' W 092°11'0 0.0
2016-Jul-20 22:33N 29°47' W 092°11'0 0.0
2016-Jul-20 21:33N 29°47' W 092°11'0 0.1
2016-Jul-20 20:33N 29°47' W 092°11'0 0.0
2016-Jul-20 19:33N 29°47' W 092°11'0 0.1
2016-Jul-20 18:33N 29°47' W 092°11'1212.3
2016-Jul-20 17:33N 29°36' W 092°18'  
Track history (hours):
 
Tides and Currents Weather Stations Pressure Air Temp Water Temp Dewpoint Dewpoint Depression Visibility Wind Speed Wind Dir Waves Ship Positions

Mr. Mag

Owner: Tandi Marine, Inc., Larose, LA. More information available from US FCC via Universal Licensing System and Coast Guard Vessel Documentation Center.

Last reported at 2016-Jul-30 09:11 UTC. Time now 2016-Jul-30 13:06 UTC.
Position N 29°29' W 092°19'.

Length 46 m; draft 2.5 m.

Type: Passenger vessel. MMSI: 367397990.

Date/timePositionNaut miles runAvg speedWind from/ knotsBaromVisibWave heightAir tempDewpointWater temp
2016-Jul-30 09:11N 29°29' W 092°19'5 7.7
2016-Jul-30 08:33N 29°34' W 092°18'1414.0
2016-Jul-30 07:33N 29°47' W 092°11'0 0.0
2016-Jul-30 06:33N 29°47' W 092°11'0 0.0
2016-Jul-30 05:34N 29°47' W 092°11'0 0.0
2016-Jul-30 03:23N 29°47' W 092°11'0 0.0
2016-Jul-30 02:33N 29°47' W 092°11'0 0.0
2016-Jul-30 01:33N 29°47' W 092°11'0 0.0
2016-Jul-30 00:33N 29°47' W 092°11'0 0.1
2016-Jul-29 23:33N 29°47' W 092°11'0 0.0
2016-Jul-29 22:33N 29°47' W 092°11'1413.8
2016-Jul-29 21:33N 29°34' W 092°18'5 0.4
2016-Jul-29 09:28N 29°29' W 092°19'5 5.5
2016-Jul-29 08:30N 29°34' W 092°18'1414.6
2016-Jul-29 07:33N 29°47' W 092°11'0 0.3
2016-Jul-29 06:33N 29°47' W 092°11'0 0.0
2016-Jul-29 05:33N 29°47' W 092°11'0 0.0
2016-Jul-29 03:33N 29°47' W 092°11'0 0.0
2016-Jul-29 02:33N 29°47' W 092°11'0 0.0
2016-Jul-29 01:33N 29°47' W 092°11'0 0.0
2016-Jul-29 00:33N 29°47' W 092°11'0 0.0
2016-Jul-28 23:33N 29°47' W 092°11'0 0.0
2016-Jul-28 22:33N 29°47' W 092°11'0 0.0
2016-Jul-28 21:33N 29°47' W 092°11'0 0.0
2016-Jul-28 20:33N 29°47' W 092°11'0 0.0
2016-Jul-28 19:33N 29°47' W 092°11'1 0.8
2016-Jul-28 18:33N 29°46' W 092°11'1414.1
2016-Jul-28 17:32N 29°33' W 092°18'3 0.4
2016-Jul-28 09:33N 29°30' W 092°19'1111.2
2016-Jul-28 08:33N 29°41' W 092°15'7 7.0
2016-Jul-28 07:33N 29°47' W 092°11'0 0.0
2016-Jul-28 06:33N 29°47' W 092°11'0 0.0
2016-Jul-28 05:33N 29°47' W 092°11'0 0.0
2016-Jul-28 03:33N 29°47' W 092°11'0 0.0
2016-Jul-28 02:33N 29°47' W 092°11'0 0.0
2016-Jul-28 01:33N 29°47' W 092°11'0 0.0
2016-Jul-28 00:33N 29°47' W 092°11'0 0.0
2016-Jul-27 23:34N 29°47' W 092°11'0 0.0
2016-Jul-27 22:33N 29°47' W 092°11'0 0.0
2016-Jul-27 21:33N 29°47' W 092°11'0 0.0
2016-Jul-27 20:33N 29°47' W 092°11'0 0.0
2016-Jul-27 19:33N 29°47' W 092°11'0 0.0
2016-Jul-27 18:34N 29°47' W 092°11'0 0.0
2016-Jul-27 17:33N 29°47' W 092°11'0 0.0
2016-Jul-27 16:34N 29°47' W 092°11'0 0.0
2016-Jul-27 15:33N 29°47' W 092°11'0 0.0
2016-Jul-27 14:33N 29°47' W 092°11'0 0.0
2016-Jul-27 13:33N 29°47' W 092°11'0 0.0
2016-Jul-27 12:33N 29°47' W 092°11'0 0.0
2016-Jul-27 11:34N 29°47' W 092°11'0 0.0
2016-Jul-27 10:33N 29°47' W 092°11'0 0.0
2016-Jul-27 09:33N 29°47' W 092°11'0 0.0
2016-Jul-27 08:33N 29°47' W 092°11'0 0.0
2016-Jul-27 07:33N 29°47' W 092°11'0 0.0
2016-Jul-27 06:33N 29°47' W 092°11'0 0.0
2016-Jul-27 05:33N 29°47' W 092°11'0 0.0
2016-Jul-27 04:33N 29°47' W 092°11'0 0.0
2016-Jul-27 03:33N 29°47' W 092°11'1 0.9
2016-Jul-27 02:33N 29°46' W 092°11'16 1.8
2016-Jul-26 17:26N 29°31' W 092°19'910.1
2016-Jul-26 16:34N 29°39' W 092°16'8 8.4
2016-Jul-26 15:33N 29°47' W 092°11'0 0.0
2016-Jul-26 14:33N 29°47' W 092°11'0 0.0
2016-Jul-26 13:33N 29°47' W 092°11'0 0.0
2016-Jul-26 12:33N 29°47' W 092°11'0 0.0
2016-Jul-26 11:33N 29°47' W 092°11'0 0.0
2016-Jul-26 10:33N 29°47' W 092°11'0 0.0
2016-Jul-26 09:33N 29°47' W 092°11'0 0.0
2016-Jul-26 08:33N 29°47' W 092°11'0 0.0
2016-Jul-26 07:33N 29°47' W 092°11'0 0.0
2016-Jul-26 06:33N 29°47' W 092°11'0 0.0
2016-Jul-26 05:33N 29°47' W 092°11'0 0.0
2016-Jul-26 04:33N 29°47' W 092°11'0 0.0
2016-Jul-26 03:33N 29°47' W 092°11'0 0.0
2016-Jul-26 02:33N 29°47' W 092°11'0 0.0
2016-Jul-26 01:33N 29°47' W 092°11'0 0.0
2016-Jul-26 00:33N 29°47' W 092°11'0 0.0
2016-Jul-25 23:33N 29°47' W 092°11'0 0.0
2016-Jul-25 22:34N 29°47' W 092°11'0 0.0
2016-Jul-25 21:33N 29°47' W 092°11'4 4.4
2016-Jul-25 20:33N 29°44' W 092°15'11 9.9
2016-Jul-25 19:24N 29°33' W 092°18'1 0.1
2016-Jul-25 14:33N 29°33' W 092°18'1312.6
2016-Jul-25 13:33N 29°45' W 092°13'3 2.5
2016-Jul-25 12:33N 29°47' W 092°11'0 0.0
2016-Jul-25 11:33N 29°47' W 092°11'0 0.0
2016-Jul-25 10:33N 29°47' W 092°11'0 0.0
2016-Jul-25 09:33N 29°47' W 092°11'0 0.0
2016-Jul-25 08:33N 29°47' W 092°11'0 0.0
2016-Jul-25 07:33N 29°47' W 092°11'0 0.0
2016-Jul-25 06:33N 29°47' W 092°11'0 0.0
2016-Jul-25 05:33N 29°47' W 092°11'0 0.0
2016-Jul-25 04:33N 29°47' W 092°11'0 0.1
2016-Jul-25 03:33N 29°47' W 092°11'0 0.0
2016-Jul-25 02:33N 29°47' W 092°11'4 4.2
2016-Jul-25 01:33N 29°44' W 092°14'15 4.8
2016-Jul-24 22:31N 29°30' W 092°19'6 6.1
2016-Jul-24 21:34N 29°35' W 092°18'1312.8
2016-Jul-24 20:33N 29°47' W 092°11'0 0.0
2016-Jul-24 19:33N 29°47' W 092°11'0 0.0
2016-Jul-24 18:33N 29°47' W 092°11'0 0.0
2016-Jul-24 17:33N 29°47' W 092°11'0 0.0
2016-Jul-24 16:33N 29°47' W 092°11'0 0.0
2016-Jul-24 15:33N 29°47' W 092°11'1413.7
2016-Jul-24 14:33N 29°35' W 092°18'5 1.0
2016-Jul-24 09:24N 29°29' W 092°19'6 7.2
2016-Jul-24 08:33N 29°35' W 092°18'1312.9
2016-Jul-24 07:33N 29°47' W 092°11'0 0.2
2016-Jul-24 06:33N 29°47' W 092°11'0 0.0
2016-Jul-24 05:33N 29°47' W 092°11'0 0.0
2016-Jul-24 04:33N 29°47' W 092°11'0 0.0
2016-Jul-24 03:33N 29°47' W 092°11'2 2.4
2016-Jul-24 02:34N 29°45' W 092°13'19 1.1
2016-Jul-23 09:07N 29°27' W 092°22'711.5
2016-Jul-23 08:33N 29°33' W 092°18'1010.1
2016-Jul-23 07:33N 29°43' W 092°15'5 4.9
2016-Jul-23 06:31N 29°47' W 092°11'0 0.0
2016-Jul-22 04:33N 29°47' W 092°11'0 0.0
2016-Jul-22 03:33N 29°47' W 092°11'3 3.0
2016-Jul-22 02:33N 29°45' W 092°13'12 3.0
2016-Jul-21 22:33N 29°33' W 092°18'1514.7
2016-Jul-21 21:34N 29°46' W 092°11'1 0.8
2016-Jul-21 20:33N 29°47' W 092°11'0 0.0
2016-Jul-21 19:33N 29°47' W 092°11'0 0.0
2016-Jul-21 18:33N 29°47' W 092°11'0 0.0
2016-Jul-21 17:33N 29°47' W 092°11'0 0.0
2016-Jul-21 16:33N 29°47' W 092°11'7 7.5
2016-Jul-21 15:33N 29°40' W 092°15'12 1.9
2016-Jul-21 09:19N 29°29' W 092°19'7 8.9
2016-Jul-21 08:33N 29°36' W 092°18'1212.4
2016-Jul-21 07:33N 29°47' W 092°11'0 0.0
2016-Jul-21 06:33N 29°47' W 092°11'0 0.0
2016-Jul-21 05:33N 29°47' W 092°11'0 0.0
2016-Jul-21 04:33N 29°47' W 092°11'0 0.0
2016-Jul-21 03:33N 29°47' W 092°11'0 0.0
2016-Jul-21 02:33N 29°47' W 092°11'0 0.0
2016-Jul-21 01:34N 29°47' W 092°11'0 0.0
2016-Jul-21 00:33N 29°47' W 092°11'0 0.0
2016-Jul-20 23:33N 29°47' W 092°11'0 0.0
2016-Jul-20 22:33N 29°47' W 092°11'0 0.0
2016-Jul-20 21:33N 29°47' W 092°11'0 0.1
2016-Jul-20 20:33N 29°47' W 092°11'0 0.0
2016-Jul-20 19:33N 29°47' W 092°11'0 0.1
2016-Jul-20 18:33N 29°47' W 092°11'1212.3
2016-Jul-20 17:33N 29°36' W 092°18'  

Dump ship's entire track history